Time;durP1;ratioP1;P1;durP2;ratioP2;P2;SDS_P1;SDS_P2;PMS_P1;PMS_P2;Temp;Humidity;BMP_temperature;BMP_pressure;BME280_temperature;BME280_humidity;BME280_pressure;Samples;Min_cycle;Max_cycle;Signal;HPM_P1;HPM_P2
2022/03/28 00:01:26;;;;;;;15.73;11.93;;;7.70;81.70;;;;;;4979707;28;20465;-55
2022/03/28 00:03:55;;;;;;;17.47;11.77;;;7.70;91.20;;;;;;4980010;28;20582;-57
2022/03/28 00:06:23;;;;;;;18.67;13.17;;;7.70;99.90;;;;;;4980034;28;20970;-57
2022/03/28 00:08:51;;;;;;;16.67;13.40;;;7.70;99.90;;;;;;4979881;28;20466;-56
2022/03/28 00:11:21;;;;;;;16.10;12.83;;;7.60;99.90;;;;;;4979131;28;20894;-56
2022/03/28 00:13:51;;;;;;;16.73;13.10;;;7.60;99.90;;;;;;4979060;28;20520;-57
2022/03/28 00:16:20;;;;;;;17.53;13.57;;;7.50;98.30;;;;;;4979181;28;20524;-58
2022/03/28 00:18:55;;;;;;;18.10;12.80;;;7.40;99.90;;;;;;4979167;28;20466;-55
2022/03/28 00:21:24;;;;;;;21.90;17.10;;;7.40;99.90;;;;;;4978830;28;20471;-55
2022/03/28 00:23:53;;;;;;;22.60;16.33;;;7.30;99.90;;;;;;4979608;28;20477;-56
2022/03/28 00:26:21;;;;;;;22.20;15.13;;;7.30;99.90;;;;;;4979362;28;20469;-56
2022/03/28 00:28:57;;;;;;;22.10;14.90;;;7.20;99.90;;;;;;4979670;28;20473;-56
2022/03/28 00:31:25;;;;;;;17.93;12.83;;;7.30;99.90;;;;;;4979142;28;20470;-57
2022/03/28 00:33:53;;;;;;;21.17;13.70;;;7.20;99.90;;;;;;4979297;28;20906;-57
2022/03/28 00:36:22;;;;;;;18.17;13.20;;;7.20;99.90;;;;;;4979313;28;20849;-56
2022/03/28 00:38:51;;;;;;;16.17;11.80;;;7.20;99.90;;;;;;4979576;28;20513;-56
2022/03/28 00:41:18;;;;;;;15.97;11.37;;;7.20;99.90;;;;;;4979409;28;20483;-56
2022/03/28 00:43:56;;;;;;;15.17;12.43;;;7.10;99.90;;;;;;4979257;28;20469;-57
2022/03/28 00:46:34;;;;;;;16.00;12.50;;;7.00;99.90;;;;;;4979422;28;20916;-57
2022/03/28 00:49:04;;;;;;;20.27;13.00;;;7.00;1.00;;;;;;4979225;28;20869;-57
2022/03/28 00:51:34;;;;;;;16.73;12.77;;;6.90;1.00;;;;;;4978649;28;20532;-58
2022/03/28 00:54:08;;;;;;;17.40;13.37;;;7.00;1.00;;;;;;4978979;28;20517;-57
2022/03/28 00:56:40;;;;;;;18.67;12.90;;;6.90;1.00;;;;;;4978498;28;20542;-57
2022/03/28 00:59:07;;;;;;;17.90;12.00;;;7.00;1.00;;;;;;4978264;28;20505;-58
2022/03/28 01:01:37;;;;;;;19.73;12.93;;;7.10;1.00;;;;;;4978509;28;20525;-57
2022/03/28 01:04:09;;;;;;;22.03;12.90;;;7.00;99.90;;;;;;4978760;28;20829;-57
2022/03/28 01:06:43;;;;;;;18.97;12.90;;;7.00;99.90;;;;;;4978965;28;20470;-55
2022/03/28 01:09:12;;;;;;;17.17;12.50;;;6.90;99.90;;;;;;4978520;28;20465;-57
2022/03/28 01:11:41;;;;;;;20.17;12.63;;;6.90;99.90;;;;;;4979569;28;20466;-57
2022/03/28 01:14:11;;;;;;;16.97;13.60;;;6.90;1.00;;;;;;4997944;28;20528;-56
2022/03/28 01:19:23;;;;;;;16.73;12.67;;;6.80;1.00;;;;;;4997047;28;20443;-55
2022/03/28 01:21:52;;;;;;;16.63;11.40;;;6.80;1.00;;;;;;4997737;28;20469;-56
2022/03/28 01:24:20;;;;;;;17.57;12.67;;;6.70;1.00;;;;;;4998043;28;20807;-57
2022/03/28 01:26:51;;;;;;;16.67;11.27;;;6.70;1.00;;;;;;4998300;28;20472;-58
2022/03/28 01:29:19;;;;;;;16.67;12.30;;;6.60;1.00;;;;;;4997998;28;20469;-58
2022/03/28 01:31:52;;;;;;;18.53;11.97;;;6.60;1.00;;;;;;4997835;28;20918;-57
2022/03/28 01:34:21;;;;;;;15.63;10.70;;;6.60;1.00;;;;;;4996992;28;20472;-58
2022/03/28 01:36:49;;;;;;;20.90;13.73;;;6.50;1.00;;;;;;4998288;28;20488;-56
2022/03/28 01:39:22;;;;;;;15.57;11.50;;;6.50;1.00;;;;;;4997862;28;20469;-57
2022/03/28 01:45:15;;;;;;;20.23;12.10;;;6.40;1.00;;;;;;4988036;28;20477;-57
2022/03/28 01:47:45;;;;;;;19.30;14.40;;;6.40;1.00;;;;;;4991367;28;20512;-57
2022/03/28 01:50:12;;;;;;;19.00;12.20;;;6.40;1.00;;;;;;4997026;28;20465;-56
2022/03/28 01:52:49;;;;;;;19.50;12.83;;;6.30;1.00;;;;;;4978245;28;20492;-57
2022/03/28 01:55:19;;;;;;;17.10;11.63;;;6.30;1.00;;;;;;4978000;28;20466;-57
2022/03/28 01:57:49;;;;;;;17.63;12.60;;;6.40;25.20;;;;;;4978207;28;20841;-58
2022/03/28 02:00:18;;;;;;;17.60;12.80;;;6.30;1.00;;;;;;4978020;28;20462;-56
2022/03/28 02:02:50;;;;;;;17.07;12.93;;;6.30;1.00;;;;;;4982280;28;20521;-56
2022/03/28 02:05:20;;;;;;;17.07;11.90;;;6.30;1.00;;;;;;4997052;28;20475;-56
2022/03/28 02:07:49;;;;;;;15.77;11.83;;;6.30;1.00;;;;;;4997633;28;20519;-56
2022/03/28 02:10:19;;;;;;;18.90;12.17;;;6.40;57.30;;;;;;4997346;28;20972;-56
2022/03/28 02:12:52;;;;;;;14.23;10.53;;;6.30;1.00;;;;;;4997583;28;20464;-56
2022/03/28 02:15:20;;;;;;;19.30;12.90;;;6.20;1.00;;;;;;4997252;28;20461;-55
2022/03/28 02:17:50;;;;;;;14.90;11.73;;;6.20;30.40;;;;;;4997717;28;20464;-56
2022/03/28 02:20:21;;;;;;;16.77;10.20;;;6.20;99.90;;;;;;4997541;28;20524;-56
2022/03/28 02:22:49;;;;;;;17.37;12.27;;;6.10;99.90;;;;;;4997808;28;20547;-57
2022/03/28 02:25:23;;;;;;;16.27;11.87;;;6.10;99.90;;;;;;4997297;28;20492;-56
2022/03/28 02:27:54;;;;;;;19.27;13.87;;;6.10;99.90;;;;;;4997415;28;20472;-56
2022/03/28 02:30:26;;;;;;;14.37;10.87;;;6.10;99.90;;;;;;4997191;28;20567;-54
2022/03/28 02:32:53;;;;;;;15.20;11.27;;;6.00;99.90;;;;;;4997734;28;20504;-56
2022/03/28 02:35:20;;;;;;;17.63;12.60;;;6.00;99.90;;;;;;4996892;28;20961;-58
2022/03/28 02:37:48;;;;;;;19.97;13.00;;;6.10;1.00;;;;;;4997142;28;20476;-57
2022/03/28 02:40:15;;;;;;;17.10;12.53;;;6.10;1.00;;;;;;4985075;28;20469;-57
2022/03/28 02:42:52;;;;;;;17.53;12.70;;;6.20;37.80;;;;;;4978481;28;20567;-57
2022/03/28 02:45:35;;;;;;;22.80;13.73;;;6.20;1.00;;;;;;4979045;28;20928;-57
2022/03/28 02:48:02;;;;;;;20.33;14.97;;;6.20;99.90;;;;;;4981358;28;20925;-57
2022/03/28 02:50:33;;;;;;;20.60;14.20;;;6.40;3.60;;;;;;4980884;28;20520;-57
2022/03/28 02:53:05;;;;;;;22.73;15.60;;;6.40;1.00;;;;;;4981175;28;20834;-58
2022/03/28 02:55:32;;;;;;;19.23;14.23;;;6.30;32.40;;;;;;4981045;28;20457;-57
2022/03/28 02:58:01;;;;;;;23.20;14.30;;;6.30;99.90;;;;;;4980096;28;20531;-57
2022/03/28 03:00:32;;;;;;;24.30;15.70;;;6.30;99.90;;;;;;4981222;28;20471;-57
2022/03/28 03:02:59;;;;;;;20.10;13.97;;;6.30;1.00;;;;;;4981272;28;20836;-58
2022/03/28 03:05:29;;;;;;;20.67;14.77;;;6.30;1.00;;;;;;4980841;28;20498;-56
2022/03/28 03:07:56;;;;;;;23.87;14.97;;;6.20;99.90;;;;;;4981419;28;20466;-57
2022/03/28 03:10:23;;;;;;;20.90;14.20;;;6.20;99.90;;;;;;4981101;28;20475;-58
2022/03/28 03:12:50;;;;;;;23.07;13.27;;;6.20;24.80;;;;;;4981024;28;20520;-57
2022/03/28 03:15:23;;;;;;;22.00;13.83;;;6.20;1.00;;;;;;4980590;28;20909;-58
2022/03/28 03:17:53;;;;;;;20.57;13.60;;;6.10;1.00;;;;;;4980926;28;20476;-57
2022/03/28 03:20:20;;;;;;;18.50;12.77;;;6.10;1.00;;;;;;4981007;28;20472;-58
2022/03/28 03:22:47;;;;;;;23.03;15.60;;;6.00;1.00;;;;;;4980809;28;20499;-58
2022/03/28 03:25:14;;;;;;;19.97;13.67;;;6.10;99.90;;;;;;4981212;28;20496;-56
2022/03/28 03:27:41;;;;;;;20.00;13.43;;;6.10;69.60;;;;;;4980590;28;20465;-58
2022/03/28 03:30:14;;;;;;;20.10;13.07;;;6.10;99.90;;;;;;4980761;28;20470;-57
2022/03/28 03:32:44;;;;;;;18.40;13.20;;;6.00;99.90;;;;;;4980789;28;20465;-57
2022/03/28 03:35:17;;;;;;;19.70;14.00;;;6.00;1.00;;;;;;4980879;28;20481;-57
2022/03/28 03:37:44;;;;;;;17.77;12.67;;;6.00;1.00;;;;;;4980492;28;20521;-57
2022/03/28 03:40:13;;;;;;;19.67;14.77;;;5.90;1.00;;;;;;4991179;28;20515;-57
2022/03/28 03:42:40;;;;;;;18.50;13.40;;;5.90;1.00;;;;;;4999915;28;20528;-57
2022/03/28 03:45:10;;;;;;;19.03;13.70;;;5.90;1.00;;;;;;4999963;28;20821;-57
2022/03/28 03:47:38;;;;;;;16.73;12.50;;;5.80;1.00;;;;;;4999518;28;20465;-57
2022/03/28 03:50:10;;;;;;;17.07;12.13;;;5.80;1.00;;;;;;4999720;28;20468;-57
2022/03/28 03:52:39;;;;;;;19.17;13.50;;;5.80;99.90;;;;;;4988921;28;20500;-57
2022/03/28 03:55:07;;;;;;;20.77;12.87;;;5.80;99.90;;;;;;4980542;28;20461;-57
2022/03/28 03:57:38;;;;;;;20.13;13.97;;;5.90;99.90;;;;;;4978180;28;20469;-55
2022/03/28 04:00:06;;;;;;;21.87;13.97;;;5.80;99.90;;;;;;4978842;28;20462;-57
2022/03/28 04:02:33;;;;;;;18.27;13.73;;;5.90;99.90;;;;;;4979996;28;20470;-57
2022/03/28 04:05:02;;;;;;;22.60;14.80;;;5.80;1.00;;;;;;4980047;28;20472;-57
2022/03/28 04:07:30;;;;;;;20.73;14.30;;;5.80;1.00;;;;;;4979576;28;20474;-57
2022/03/28 04:10:03;;;;;;;21.40;14.20;;;5.70;99.90;;;;;;4979157;28;20461;-58
2022/03/28 04:12:34;;;;;;;19.07;13.10;;;5.70;99.90;;;;;;4978284;28;20537;-55
2022/03/28 04:15:02;;;;;;;20.00;14.83;;;5.70;1.00;;;;;;4978452;28;20917;-57
2022/03/28 04:17:39;;;;;;;19.80;13.40;;;5.70;1.00;;;;;;4978443;28;20493;-57
2022/03/28 04:20:10;;;;;;;17.20;13.97;;;5.70;1.00;;;;;;4978186;28;20516;-56
2022/03/28 04:22:42;;;;;;;18.10;12.73;;;5.70;99.90;;;;;;4958751;28;20942;-55
2022/03/28 04:25:13;;;;;;;19.10;13.10;;;5.70;99.90;;;;;;4971852;28;20929;-56
2022/03/28 04:27:42;;;;;;;16.97;12.17;;;5.70;99.90;;;;;;4976905;28;20467;-57
2022/03/28 04:30:12;;;;;;;19.87;13.27;;;5.60;99.90;;;;;;4976467;28;20471;-56
2022/03/28 04:32:39;;;;;;;17.77;14.13;;;5.60;99.90;;;;;;4977452;28;20816;-58
2022/03/28 04:35:08;;;;;;;22.17;14.87;;;5.60;99.90;;;;;;4977386;28;20430;-57
2022/03/28 04:37:41;;;;;;;20.60;13.77;;;5.60;99.90;;;;;;4974870;28;20496;-57
2022/03/28 04:40:12;;;;;;;19.60;13.90;;;5.60;99.90;;;;;;4978096;28;20890;-58
2022/03/28 04:42:40;;;;;;;20.93;14.70;;;5.60;99.90;;;;;;4974253;28;20521;-54
2022/03/28 04:45:09;;;;;;;19.23;15.03;;;5.70;1.00;;;;;;4976650;28;20527;-54
2022/03/28 04:47:41;;;;;;;16.80;12.43;;;5.60;1.00;;;;;;4975706;28;20469;-57
2022/03/28 04:50:11;;;;;;;22.70;14.77;;;5.50;1.00;;;;;;4978751;28;20474;-56
2022/03/28 04:52:42;;;;;;;24.60;19.80;;;5.50;1.00;;;;;;4978578;28;20457;-57
2022/03/28 04:55:10;;;;;;;22.73;17.80;;;5.50;99.90;;;;;;4979218;28;20545;-58
2022/03/28 04:57:37;;;;;;;23.77;18.60;;;5.50;99.90;;;;;;4978142;28;20501;-58
2022/03/28 05:00:09;;;;;;;26.10;16.80;;;5.40;18.70;;;;;;4978580;28;20469;-57
2022/03/28 05:02:36;;;;;;;18.53;14.20;;;5.40;1.00;;;;;;4978797;28;20473;-57
2022/03/28 05:05:09;;;;;;;32.90;23.57;;;5.40;99.90;;;;;;4977420;28;20843;-56
2022/03/28 05:07:37;;;;;;;48.07;32.37;;;5.40;99.90;;;;;;4977142;28;20909;-58
2022/03/28 05:10:07;;;;;;;28.27;19.97;;;5.40;99.90;;;;;;4977957;28;20759;-56
2022/03/28 05:12:35;;;;;;;29.33;19.17;;;5.30;99.90;;;;;;4973467;28;20462;-57
2022/03/28 05:15:02;;;;;;;23.70;16.87;;;5.20;1.00;;;;;;4980709;28;20880;-57
2022/03/28 05:17:36;;;;;;;47.40;31.17;;;5.20;1.00;;;;;;4987841;28;20508;-57
2022/03/28 05:20:05;;;;;;;36.33;26.50;;;5.20;1.00;;;;;;4981564;28;20469;-56
2022/03/28 05:22:33;;;;;;;50.63;33.80;;;5.30;1.00;;;;;;4978945;28;20494;-57
2022/03/28 05:25:00;;;;;;;40.80;30.60;;;5.30;1.00;;;;;;4984661;28;20462;-55
2022/03/28 05:27:31;;;;;;;21.20;16.47;;;5.30;1.00;;;;;;4983214;28;20525;-57
2022/03/28 05:30:00;;;;;;;46.60;30.67;;;5.30;99.90;;;;;;4984273;28;20568;-55
2022/03/28 05:32:31;;;;;;;45.80;30.80;;;5.40;99.90;;;;;;4981160;28;20480;-58
2022/03/28 05:35:01;;;;;;;23.97;16.53;;;5.40;1.00;;;;;;4960205;28;20466;-58
2022/03/28 05:37:30;;;;;;;29.40;20.73;;;5.40;1.00;;;;;;4979271;28;20457;-57
2022/03/28 05:40:00;;;;;;;20.27;15.13;;;5.40;13.60;;;;;;4996954;28;20473;-57
2022/03/28 05:42:34;;;;;;;21.93;14.50;;;5.40;1.00;;;;;;4992710;28;20451;-60
2022/03/28 05:45:01;;;;;;;18.43;14.20;;;5.40;99.90;;;;;;4997985;28;20848;-61
2022/03/28 05:47:39;;;;;;;19.90;13.30;;;5.50;99.90;;;;;;4988331;28;20494;-60
2022/03/28 05:50:08;;;;;;;20.70;14.60;;;5.50;99.90;;;;;;4993194;28;20494;-61
2022/03/28 05:52:35;;;;;;;19.53;14.23;;;5.60;99.90;;;;;;4986455;28;20727;-60
2022/03/28 05:55:05;;;;;;;22.07;16.30;;;5.70;99.90;;;;;;4981154;28;20464;-60
2022/03/28 05:57:36;;;;;;;24.33;16.00;;;5.70;1.00;;;;;;4990356;28;20538;-60
2022/03/28 06:00:09;;;;;;;21.77;15.00;;;5.80;99.90;;;;;;4997657;28;20475;-60
2022/03/28 06:02:39;;;;;;;19.40;13.40;;;5.90;99.90;;;;;;4996128;28;20476;-61
2022/03/28 06:05:10;;;;;;;19.43;13.77;;;6.00;99.90;;;;;;4969015;28;20872;-60
2022/03/28 06:07:37;;;;;;;24.60;14.47;;;6.10;1.00;;;;;;4996589;28;20543;-60
2022/03/28 06:10:07;;;;;;;25.27;15.77;;;6.20;1.00;;;;;;4986034;28;20524;-60
2022/03/28 06:12:39;;;;;;;23.33;14.97;;;6.30;99.90;;;;;;4983479;28;20475;-60
2022/03/28 06:15:10;;;;;;;21.33;14.10;;;6.40;99.90;;;;;;4978354;28;20846;-61
2022/03/28 06:17:38;;;;;;;19.60;13.60;;;6.50;99.90;;;;;;4971488;28;20446;-60
2022/03/28 06:20:12;;;;;;;26.90;15.20;;;6.60;99.90;;;;;;4987379;28;20789;-61
2022/03/28 06:22:39;;;;;;;20.57;14.47;;;6.90;99.20;;;;;;4978153;28;20473;-60
2022/03/28 06:25:13;;;;;;;20.63;14.23;;;7.10;53.70;;;;;;4986095;28;20549;-61
2022/03/28 06:27:42;;;;;;;27.53;15.63;;;7.30;3.70;;;;;;4979134;28;20932;-61
2022/03/28 06:30:21;;;;;;;18.30;14.00;;;7.40;1.00;;;;;;4981328;28;20457;-61
2022/03/28 06:33:14;;;;;;;22.80;14.67;;;7.60;1.00;;;;;;4975147;28;20473;-61
2022/03/28 06:35:42;;;;;;;19.10;14.40;;;7.80;99.90;;;;;;4970745;28;20513;-61
2022/03/28 06:38:09;;;;;;;19.80;14.17;;;8.00;99.90;;;;;;4992554;28;20468;-61
2022/03/28 06:40:37;;;;;;;22.17;15.30;;;8.10;99.90;;;;;;4987903;28;20536;-61
2022/03/28 06:43:09;;;;;;;21.27;15.57;;;8.20;99.90;;;;;;4993961;28;20519;-61
2022/03/28 06:45:39;;;;;;;25.93;16.40;;;8.30;99.90;;;;;;4988982;28;20532;-61
2022/03/28 06:48:07;;;;;;;25.43;18.60;;;8.50;99.90;;;;;;4998020;28;20491;-61
2022/03/28 06:50:34;;;;;;;19.03;16.30;;;8.70;99.90;;;;;;4986734;28;20524;-61
2022/03/28 06:53:02;;;;;;;24.17;17.00;;;9.00;99.90;;;;;;4983288;28;20561;-61
2022/03/28 06:55:30;;;;;;;18.30;15.37;;;9.30;99.90;;;;;;4994092;28;20465;-61
2022/03/28 06:58:04;;;;;;;22.90;17.13;;;9.50;99.90;;;;;;4979855;28;20467;-61
2022/03/28 07:00:34;;;;;;;22.63;16.37;;;9.70;99.90;;;;;;4980142;28;20466;-61
2022/03/28 07:03:07;;;;;;;15.67;13.50;;;9.90;99.90;;;;;;5000396;28;20461;-61
2022/03/28 07:05:39;;;;;;;17.53;14.93;;;10.10;73.00;;;;;;4998301;28;20440;-61
2022/03/28 07:08:12;;;;;;;20.53;15.43;;;10.20;26.20;;;;;;4981965;28;20496;-61
2022/03/28 07:10:45;;;;;;;17.27;13.93;;;10.40;13.20;;;;;;4985943;28;20479;-61
2022/03/28 07:13:15;;;;;;;17.10;14.23;;;10.60;1.00;;;;;;4998401;28;20472;-60
2022/03/28 07:15:46;;;;;;;19.27;16.00;;;10.70;1.00;;;;;;4988755;28;20854;-61
2022/03/28 07:18:13;;;;;;;18.40;15.33;;;10.90;1.00;;;;;;4999896;28;20763;-61
2022/03/28 07:20:41;;;;;;;20.03;16.57;;;11.10;1.00;;;;;;4985393;28;20516;-61
2022/03/28 07:23:13;;;;;;;18.20;15.23;;;11.40;1.00;;;;;;5000192;28;20837;-61
2022/03/28 07:25:45;;;;;;;16.30;14.30;;;11.60;1.00;;;;;;4994275;28;20544;-61
2022/03/28 07:28:17;;;;;;;18.43;15.90;;;11.90;1.00;;;;;;5000329;28;20832;-61
2022/03/28 07:30:47;;;;;;;18.67;15.87;;;12.10;1.00;;;;;;4989398;28;20559;-61
2022/03/28 07:33:17;;;;;;;17.93;14.30;;;12.40;1.00;;;;;;4987125;28;20527;-61
2022/03/28 07:35:48;;;;;;;48.80;31.73;;;12.70;1.00;;;;;;4991392;28;20493;-61
2022/03/28 07:38:15;;;;;;;51.80;34.67;;;12.80;1.00;;;;;;4989258;28;20750;-61
2022/03/28 07:40:43;;;;;;;59.03;41.43;;;13.10;1.00;;;;;;4996242;28;20469;-61
2022/03/28 07:43:13;;;;;;;23.07;16.40;;;13.40;1.00;;;;;;4991019;28;20468;-61
2022/03/28 07:45:40;;;;;;;25.40;21.97;;;13.70;1.00;;;;;;4995832;28;20513;-61
2022/03/28 07:48:18;;;;;;;18.57;16.60;;;14.00;1.00;;;;;;4990675;28;20933;-60
2022/03/28 07:50:45;;;;;;;16.70;14.97;;;14.30;1.00;;;;;;4999548;28;20465;-60
2022/03/28 07:53:12;;;;;;;17.90;15.30;;;14.50;1.00;;;;;;4997071;28;20910;-61
2022/03/28 07:55:42;;;;;;;17.20;15.40;;;14.40;1.00;;;;;;4999249;28;20561;-61
2022/03/28 07:58:10;;;;;;;18.17;16.13;;;14.50;1.00;;;;;;4993364;28;20469;-60
2022/03/28 08:00:41;;;;;;;17.93;15.60;;;14.90;1.00;;;;;;4999344;28;20469;-60
2022/03/28 08:03:15;;;;;;;19.93;16.57;;;15.20;1.00;;;;;;4989039;28;20473;-61
2022/03/28 08:05:46;;;;;;;20.47;17.00;;;15.60;1.00;;;;;;4994442;28;20479;-61
2022/03/28 08:08:19;;;;;;;24.57;17.60;;;15.50;1.00;;;;;;4998515;28;20972;-61
2022/03/28 08:10:46;;;;;;;22.67;17.17;;;16.00;1.00;;;;;;4999297;28;20465;-61
2022/03/28 08:13:13;;;;;;;23.70;16.67;;;16.20;1.00;;;;;;4991717;28;20757;-61
2022/03/28 08:15:43;;;;;;;19.13;17.13;;;16.50;1.00;;;;;;4994799;28;20515;-61
2022/03/28 08:18:15;;;;;;;21.30;17.17;;;16.10;1.00;;;;;;4979534;28;20496;-61
2022/03/28 08:20:47;;;;;;;19.20;16.60;;;16.20;1.00;;;;;;4980305;28;20470;-62
2022/03/28 08:23:16;;;;;;;20.30;17.33;;;15.90;1.00;;;;;;4997887;28;20953;-62
2022/03/28 08:25:44;;;;;;;20.00;18.00;;;16.10;1.00;;;;;;4979093;28;20601;-62
2022/03/28 08:28:10;;;;;;;19.70;17.70;;;16.60;1.00;;;;;;4983845;28;20545;-62
2022/03/28 08:30:41;;;;;;;21.10;19.00;;;16.90;1.00;;;;;;4973733;28;20474;-62
2022/03/28 08:33:13;;;;;;;21.87;19.50;;;17.30;1.00;;;;;;4986293;28;20492;-62
2022/03/28 08:35:47;;;;;;;19.47;17.50;;;17.70;1.00;;;;;;4983704;28;21006;-62
2022/03/28 08:38:20;;;;;;;20.57;16.97;;;17.90;1.00;;;;;;4971180;28;20767;-62
2022/03/28 08:40:50;;;;;;;24.20;19.83;;;18.10;1.00;;;;;;4992400;28;20470;-62
2022/03/28 08:43:27;;;;;;;20.27;17.63;;;18.30;1.00;;;;;;4981496;28;21007;-62
2022/03/28 08:46:04;;;;;;;21.33;19.13;;;18.60;1.00;;;;;;4989492;28;20475;-62
2022/03/28 08:48:34;;;;;;;22.33;19.63;;;18.90;1.00;;;;;;4985209;28;21018;-62
2022/03/28 08:51:03;;;;;;;21.63;19.30;;;19.00;1.00;;;;;;4968192;28;20912;-62
2022/03/28 08:53:30;;;;;;;22.13;19.87;;;19.20;99.90;;;;;;4986319;28;20780;-62
2022/03/28 08:56:03;;;;;;;19.97;18.00;;;19.10;99.90;;;;;;4987293;28;20527;-63
2022/03/28 08:58:30;;;;;;;23.13;20.27;;;19.40;99.90;;;;;;4993130;28;20834;-62
2022/03/28 09:01:10;;;;;;;24.37;21.10;;;19.60;99.90;;;;;;4987557;28;20465;-62
2022/03/28 09:03:39;;;;;;;23.10;18.80;;;19.50;99.90;;;;;;4977175;28;20472;-62
2022/03/28 09:06:39;;;;;;;21.60;19.23;;;19.70;99.90;;;;;;4991478;28;20466;-62
2022/03/28 09:09:17;;;;;;;22.40;20.07;;;19.90;99.90;;;;;;4974295;28;20521;-62
2022/03/28 09:11:47;;;;;;;22.27;20.07;;;20.50;99.90;;;;;;4990598;28;20481;-63
2022/03/28 09:14:24;;;;;;;23.30;20.77;;;20.30;99.90;;;;;;4993494;28;20535;-62
2022/03/28 09:17:08;;;;;;;20.57;18.40;;;20.20;99.90;;;;;;4979529;28;20836;-62
2022/03/28 09:19:47;;;;;;;21.77;19.73;;;20.30;99.90;;;;;;4977364;28;20497;-63
2022/03/28 09:22:24;;;;;;;22.67;20.43;;;20.60;99.90;;;;;;4980310;28;20485;-63
2022/03/28 09:24:55;;;;;;;24.20;21.83;;;20.80;99.90;;;;;;4997933;28;20496;-62
2022/03/28 09:27:29;;;;;;;22.73;20.43;;;21.00;99.90;;;;;;4993145;28;20520;-61
2022/03/28 09:30:08;;;;;;;22.97;20.77;;;21.20;99.90;;;;;;4986526;28;20952;-62
2022/03/28 09:32:39;;;;;;;23.47;21.07;;;21.00;99.90;;;;;;4995730;28;20481;-62
2022/03/28 09:35:19;;;;;;;24.10;21.57;;;20.80;99.90;;;;;;4978671;28;20470;-62
2022/03/28 09:38:02;;;;;;;22.77;20.37;;;20.90;99.90;;;;;;4987262;28;20469;-62
2022/03/28 09:40:38;;;;;;;23.67;21.30;;;20.80;99.90;;;;;;4996570;28;20886;-62
2022/03/28 09:43:18;;;;;;;27.60;22.43;;;19.90;99.90;;;;;;4995644;28;20488;-63
2022/03/28 09:45:48;;;;;;;24.47;22.00;;;19.60;99.90;;;;;;4993744;28;20864;-63
2022/03/28 09:48:19;;;;;;;25.13;22.53;;;19.80;99.90;;;;;;4988298;28;20519;-62
2022/03/28 09:50:57;;;;;;;27.70;24.90;;;20.10;99.90;;;;;;4983062;28;20469;-62
2022/03/28 09:53:31;;;;;;;25.43;22.83;;;20.20;99.90;;;;;;4992867;28;20522;-62
2022/03/28 09:56:02;;;;;;;24.23;21.70;;;20.80;99.90;;;;;;4995177;28;20541;-63
2022/03/28 09:58:46;;;;;;;25.20;22.70;;;20.80;99.90;;;;;;4991051;28;20969;-62
2022/03/28 10:01:16;;;;;;;25.87;23.30;;;21.60;99.90;;;;;;4980489;28;20470;-62
2022/03/28 10:03:50;;;;;;;24.57;22.20;;;21.80;99.90;;;;;;4979394;28;20887;-62
2022/03/28 10:06:18;;;;;;;24.80;22.20;;;22.10;99.90;;;;;;4980155;28;20470;-61
2022/03/28 10:08:47;;;;;;;25.83;22.87;;;22.00;99.90;;;;;;4978684;28;20790;-62
2022/03/28 10:11:17;;;;;;;25.40;22.83;;;22.20;99.90;;;;;;4985950;28;20469;-62
2022/03/28 10:13:47;;;;;;;29.60;24.43;;;22.00;99.90;;;;;;4997129;28;20465;-62
2022/03/28 10:16:15;;;;;;;24.47;22.27;;;22.20;99.90;;;;;;4981064;28;20600;-62
2022/03/28 10:18:50;;;;;;;26.23;23.47;;;22.30;99.90;;;;;;4995276;28;20469;-62
2022/03/28 10:21:22;;;;;;;26.70;24.00;;;22.20;99.90;;;;;;4983515;28;20815;-62
2022/03/28 10:24:03;;;;;;;26.10;23.40;;;21.50;99.90;;;;;;4994035;28;20524;-62
2022/03/28 10:26:33;;;;;;;23.77;21.47;;;22.00;99.90;;;;;;4988585;28;20522;-63
2022/03/28 10:29:06;;;;;;;26.67;23.97;;;22.70;99.90;;;;;;4982350;28;20934;-62
2022/03/28 10:31:37;;;;;;;26.50;23.67;;;22.90;99.90;;;;;;4987853;28;20515;-62
2022/03/28 10:34:07;;;;;;;26.10;23.00;;;23.10;99.90;;;;;;4997215;28;20922;-62
2022/03/28 10:36:43;;;;;;;26.00;23.30;;;23.30;99.90;;;;;;4995389;28;20501;-62
2022/03/28 10:39:35;;;;;;;26.17;23.50;;;23.40;99.90;;;;;;4988036;28;20531;-63
2022/03/28 10:42:16;;;;;;;25.27;22.77;;;23.30;99.90;;;;;;4978845;28;20470;-63
2022/03/28 10:44:47;;;;;;;26.63;23.80;;;23.30;99.90;;;;;;4985132;28;20553;-63
2022/03/28 10:47:15;;;;;;;26.53;23.80;;;23.30;99.90;;;;;;4978396;28;20895;-63
2022/03/28 10:50:00;;;;;;;25.60;23.00;;;23.50;99.90;;;;;;4975596;28;20925;-63
2022/03/28 10:52:30;;;;;;;25.87;23.43;;;23.50;99.90;;;;;;4975896;28;20476;-63
2022/03/28 10:55:07;;;;;;;25.47;22.97;;;23.90;99.90;;;;;;4976035;28;20929;-62
2022/03/28 10:57:38;;;;;;;25.93;23.43;;;23.80;99.90;;;;;;4979049;28;20458;-62
2022/03/28 11:00:09;;;;;;;24.53;22.10;;;23.80;99.90;;;;;;4989149;28;20458;-63
2022/03/28 11:02:39;;;;;;;24.53;22.23;;;24.00;99.90;;;;;;4978753;28;20878;-63
2022/03/28 11:05:11;;;;;;;27.63;24.83;;;24.10;99.90;;;;;;4979139;28;20766;-61
2022/03/28 11:07:38;;;;;;;26.80;24.20;;;24.10;99.90;;;;;;4992273;28;20493;-61
2022/03/28 11:10:11;;;;;;;25.17;22.70;;;24.30;99.90;;;;;;4985267;28;20752;-60
2022/03/28 11:12:52;;;;;;;23.73;21.47;;;24.10;99.90;;;;;;4985529;28;20811;-61
2022/03/28 11:15:24;;;;;;;23.47;21.27;;;24.50;99.90;;;;;;4977389;28;20473;-61
2022/03/28 11:17:58;;;;;;;26.73;23.10;;;24.50;99.90;;;;;;4978712;28;20462;-62
2022/03/28 11:20:28;;;;;;;23.77;21.57;;;24.80;99.90;;;;;;4988393;28;20471;-61
2022/03/28 11:23:08;;;;;;;22.37;20.07;;;24.90;99.90;;;;;;4995361;28;20784;-61
2022/03/28 11:25:42;;;;;;;21.57;19.47;;;25.10;99.90;;;;;;4981893;28;20461;-60
2022/03/28 11:28:13;;;;;;;21.93;19.63;;;25.50;99.90;;;;;;4979595;28;20579;-60
2022/03/28 11:30:53;;;;;;;20.93;19.00;;;25.10;99.90;;;;;;4981769;28;20458;-61
2022/03/28 11:33:26;;;;;;;21.93;19.40;;;24.90;99.90;;;;;;4978683;28;20470;-60
2022/03/28 11:35:56;;;;;;;21.07;19.03;;;24.60;99.90;;;;;;4994167;28;20492;-61
2022/03/28 11:38:24;;;;;;;22.00;19.87;;;25.20;99.90;;;;;;4994501;28;20458;-61
2022/03/28 11:41:01;;;;;;;23.17;20.60;;;25.40;99.90;;;;;;4979825;28;20529;-60
2022/03/28 11:43:34;;;;;;;20.60;18.50;;;25.10;99.90;;;;;;4982672;28;20977;-60
2022/03/28 11:46:02;;;;;;;23.07;20.00;;;24.60;99.90;;;;;;4980505;28;20466;-60
2022/03/28 11:48:33;;;;;;;18.77;17.07;;;24.70;99.90;;;;;;4978878;28;21002;-61
2022/03/28 11:51:16;;;;;;;20.23;18.13;;;24.50;99.90;;;;;;4985627;28;20528;-60
2022/03/28 11:53:45;;;;;;;21.07;18.27;;;24.90;99.90;;;;;;4981275;28;20489;-61
2022/03/28 11:56:23;;;;;;;22.27;18.37;;;24.50;99.90;;;;;;4996696;28;20468;-61
2022/03/28 11:58:53;;;;;;;20.00;17.90;;;24.50;99.90;;;;;;4993036;28;20456;-60
2022/03/28 12:01:23;;;;;;;18.37;16.57;;;24.60;99.90;;;;;;4976303;28;20462;-61
2022/03/28 12:03:51;;;;;;;18.60;16.67;;;24.80;99.90;;;;;;4975462;28;20508;-59
2022/03/28 12:06:31;;;;;;;20.43;18.40;;;24.90;99.90;;;;;;4997044;28;20578;-60
2022/03/28 12:09:06;;;;;;;18.83;16.93;;;24.50;99.90;;;;;;4989703;28;20498;-60
2022/03/28 12:11:40;;;;;;;19.10;17.10;;;24.30;99.90;;;;;;4985340;28;20772;-60
2022/03/28 12:14:07;;;;;;;19.23;17.23;;;24.80;99.90;;;;;;4990935;28;20476;-60
2022/03/28 12:16:45;;;;;;;17.33;15.73;;;24.30;99.90;;;;;;4986697;28;20439;-60
2022/03/28 12:19:20;;;;;;;19.00;17.13;;;24.60;99.90;;;;;;4998717;28;20468;-60
2022/03/28 12:21:57;;;;;;;20.70;15.93;;;25.00;99.90;;;;;;4998240;28;20717;-60
2022/03/28 12:24:31;;;;;;;16.77;12.67;;;25.40;99.90;;;;;;4992293;28;20601;-60
2022/03/28 12:27:02;;;;;;;16.30;13.73;;;25.50;99.90;;;;;;4978945;28;20473;-59
2022/03/28 12:29:38;;;;;;;17.10;15.50;;;25.80;99.90;;;;;;4978533;28;20505;-60
2022/03/28 12:32:09;;;;;;;20.00;16.07;;;25.80;99.90;;;;;;4979847;28;20461;-60
2022/03/28 12:34:39;;;;;;;18.87;16.30;;;26.00;99.90;;;;;;4986557;28;20512;-60
2022/03/28 12:37:09;;;;;;;19.73;17.17;;;25.50;99.90;;;;;;4974672;28;20497;-60
2022/03/28 12:39:44;;;;;;;18.30;16.07;;;25.00;99.90;;;;;;4983229;28;20501;-60
2022/03/28 12:42:25;;;;;;;18.90;17.00;;;24.90;99.90;;;;;;4994161;28;20460;-59
2022/03/28 12:44:56;;;;;;;21.70;16.70;;;24.90;99.90;;;;;;4997947;28;20675;-59
2022/03/28 12:47:29;;;;;;;21.83;17.63;;;24.90;99.90;;;;;;4994223;28;20469;-59
2022/03/28 12:49:58;;;;;;;18.77;15.70;;;24.30;99.90;;;;;;4988624;28;20551;-59
2022/03/28 12:52:40;;;;;;;16.93;13.97;;;24.30;99.90;;;;;;4989888;28;20903;-60
2022/03/28 12:55:07;;;;;;;16.80;15.10;;;24.60;99.90;;;;;;4983238;28;20821;-59
2022/03/28 12:57:37;;;;;;;18.93;16.40;;;24.80;99.90;;;;;;4984839;28;20470;-59
2022/03/28 13:00:05;;;;;;;17.70;15.60;;;24.30;99.90;;;;;;4979613;28;20493;-59
2022/03/28 13:02:35;;;;;;;17.87;15.63;;;24.30;99.90;;;;;;4998360;28;20469;-59